Vandenberg Air Force Base
KVBG : now visible

Airfield :











YOU CAN JOIN US ON...

 
LOGIN :

Register | Disclaimer

   EN    FR    IT 

 









Legend :    VFR   Marginal VFR   IFR   Intensive IFR   Very Intensive IFR
Visi :
Ceiling :
>= 8 km
>= 3000ft
5 to 8 km
1000 to 3000 ft
1500m to 5 km
500 to 1000 ft
800 to 1500m
200 to 500 ft
< 800m
< 200 ft
Symbols :   Thunderstorms  Fog  Heavy snow  Heavy precipitations  Wind > 20 kt







- Airport Elevation : 369 ft


KVBG - Vandenberg Air Force Base

CURRENT METAR :
  • 160608Z AUTO 02006KT 10SM OVC007 15/14 A2992 RMK AO2 SLP134

EXPIRED METARs :
  • 160558Z AUTO 01008KT 10SM OVC008 15/14 A2992 RMK AO2 SLP134 T01450136 10175 20142 51008 $
  • 160548Z AUTO 01006KT 10SM OVC007 14/14 A2992 RMK AO2 SLP135 $
  • 160538Z AUTO 02006KT 10SM OVC006 14/14 A2992 RMK AO2 CIG 004V006 SLP135 $
  • 160458Z AUTO 36008KT 9SM OVC004 14/14 A2992 RMK AO2 SLP135 T01440136 $
  • 160438Z AUTO 36007KT 10SM OVC005 14/14 A2992 RMK AO2 SLP135 $
  • 160358Z AUTO 35007KT 10SM OVC004 14/14 A2991 RMK AO2 SLP131 T01430135 $

Expired Forecast.
No reported NOTAMs for that airfield.



MET'MAP, your aeronautical weather chart ! - Copyright ORBIFLY December 2007 - Disclaimer

ORBIFLY MET'MAP TEAM :

Programming & Development : Alexandra Zaïnal
Concept & Development : Baudouin d'Aumeries
Co-Development & Prog : Marc-Olivier Méhu
Technical & hardware support : Manuel Goepfert

Contact : metmap@orbifly.com




SOURCES & CREDITS :

   NOAA       Earth
Advisory